Time,TemperatureF,DewpointF,PressureIn,WindDirection,WindDirectionDegrees,WindSpeedMPH,WindSpeedGustMPH,Humidity,HourlyPrecipIn,Conditions,Clouds,dailyrainin,SoftwareType,DateUTC
2013-08-24 00:14:00,62.0,59.0,30.13,NE,46,0.0,0.0,91,0.00,,,0.00,,2013-08-24 04:14:00,
2013-08-24 00:24:00,61.0,58.0,30.13,NE,46,0.0,0.0,91,0.00,,,0.00,,2013-08-24 04:24:00,
2013-08-24 00:44:00,61.0,59.0,30.13,NE,46,0.0,0.0,92,0.00,,,0.00,,2013-08-24 04:44:00,
2013-08-24 00:53:00,60.0,58.0,30.14,NE,46,0.0,0.0,93,0.00,,,0.00,,2013-08-24 04:53:00,
2013-08-24 01:13:00,60.0,59.0,30.14,NE,46,0.0,1.0,95,0.00,,,0.00,,2013-08-24 05:13:00,
2013-08-24 01:23:00,60.0,58.0,30.14,NE,46,0.0,0.0,94,0.00,,,0.00,,2013-08-24 05:23:00,
2013-08-24 01:43:00,60.0,58.0,30.14,NE,46,0.0,0.0,94,0.00,,,0.00,,2013-08-24 05:43:00,
2013-08-24 01:53:00,59.0,57.0,30.14,NE,46,0.0,0.0,93,0.00,,,0.00,,2013-08-24 05:53:00,
2013-08-24 02:12:00,59.0,57.0,30.14,NE,46,0.0,0.0,94,0.00,,,0.00,,2013-08-24 06:12:00,
2013-08-24 02:22:00,59.0,57.0,30.14,NE,46,0.0,0.0,94,0.00,,,0.00,,2013-08-24 06:22:00,
2013-08-24 02:42:00,58.0,56.0,30.14,NE,46,0.0,0.0,94,0.00,,,0.00,,2013-08-24 06:42:00,
2013-08-24 02:52:00,59.0,58.0,30.14,NE,46,0.0,1.0,96,0.00,,,0.00,,2013-08-24 06:52:00,
2013-08-24 03:12:00,59.0,58.0,30.14,NE,46,0.0,0.0,95,0.00,,,0.00,,2013-08-24 07:12:00,
2013-08-24 03:22:00,58.0,57.0,30.15,NE,46,0.0,0.0,96,0.00,,,0.00,,2013-08-24 07:22:00,
2013-08-24 03:43:00,58.0,57.0,30.15,NE,46,0.0,0.0,96,0.00,,,0.00,,2013-08-24 07:43:00,
2013-08-24 03:53:00,58.0,57.0,30.16,East,79,1.0,2.0,96,0.00,,,0.00,,2013-08-24 07:53:00,
2013-08-24 04:12:00,58.0,57.0,30.16,NE,46,0.0,1.0,95,0.00,,,0.00,,2013-08-24 08:12:00,
2013-08-24 04:22:00,57.0,55.0,30.16,NE,46,0.0,1.0,94,0.00,,,0.00,,2013-08-24 08:22:00,
2013-08-24 04:42:00,57.0,56.0,30.17,NE,47,0.0,0.0,95,0.00,,,0.00,,2013-08-24 08:42:00,
2013-08-24 04:52:00,57.0,56.0,30.17,NE,47,0.0,0.0,96,0.00,,,0.00,,2013-08-24 08:52:00,
2013-08-24 05:11:00,56.0,55.0,30.17,NE,46,0.0,0.0,96,0.00,,,0.00,,2013-08-24 09:11:00,
2013-08-24 05:22:00,56.0,55.0,30.18,NE,47,0.0,0.0,97,0.00,,,0.00,,2013-08-24 09:22:00,
2013-08-24 05:44:00,55.0,54.0,30.18,NE,47,0.0,0.0,96,0.00,,,0.00,,2013-08-24 09:44:00,
2013-08-24 05:53:00,56.0,55.0,30.19,NE,46,0.0,0.0,97,0.00,,,0.00,,2013-08-24 09:53:00,
2013-08-24 06:13:00,57.0,56.0,30.19,NE,47,0.0,0.0,98,0.00,,,0.00,,2013-08-24 10:13:00,
2013-08-24 06:23:00,56.0,55.0,30.19,NE,47,0.0,0.0,97,0.00,,,0.00,,2013-08-24 10:23:00,
2013-08-24 06:42:00,56.0,55.0,30.20,NE,46,0.0,0.0,97,0.00,,,0.00,,2013-08-24 10:42:00,
2013-08-24 06:53:00,56.0,55.0,30.20,NE,46,0.0,0.0,97,0.00,,,0.00,,2013-08-24 10:53:00,
2013-08-24 07:12:00,55.0,54.0,30.21,NE,46,0.0,0.0,97,0.00,,,0.00,,2013-08-24 11:12:00,
2013-08-24 07:22:00,55.0,54.0,30.22,NE,47,0.0,0.0,98,0.00,,,0.00,,2013-08-24 11:22:00,
2013-08-24 07:42:00,56.0,55.0,30.22,NE,47,0.0,0.0,98,0.00,,,0.00,,2013-08-24 11:42:00,
2013-08-24 07:52:00,56.0,55.0,30.23,NNE,25,0.0,2.0,97,0.00,,,0.00,,2013-08-24 11:52:00,
2013-08-24 08:12:00,57.0,56.0,30.24,NNE,19,0.0,1.0,97,0.00,,,0.00,,2013-08-24 12:12:00,
2013-08-24 08:21:00,59.0,58.0,30.24,NNE,19,0.0,0.0,95,0.00,,,0.00,,2013-08-24 12:21:00,
2013-08-24 08:42:00,61.0,59.0,30.24,NNE,19,0.0,1.0,93,0.00,,,0.00,,2013-08-24 12:42:00,
2013-08-24 08:52:00,62.0,59.0,30.24,NE,41,0.0,3.0,91,0.00,,,0.00,,2013-08-24 12:52:00,
2013-08-24 09:11:00,63.0,60.0,30.25,NE,49,1.0,4.0,90,0.00,,,0.00,,2013-08-24 13:11:00,
2013-08-24 09:22:00,64.0,61.0,30.25,ENE,58,2.0,4.0,90,0.00,,,0.00,,2013-08-24 13:22:00,
2013-08-24 09:42:00,66.0,62.0,30.25,NE,36,2.0,4.0,87,0.00,,,0.00,,2013-08-24 13:42:00,
2013-08-24 09:52:00,67.0,62.0,30.25,East,82,1.0,4.0,84,0.00,,,0.00,,2013-08-24 13:52:00,
2013-08-24 10:11:00,69.0,63.0,30.26,East,85,1.0,4.0,81,0.00,,,0.00,,2013-08-24 14:11:00,
2013-08-24 10:22:00,70.0,62.0,30.26,ENE,58,2.0,4.0,76,0.00,,,0.00,,2013-08-24 14:22:00,
2013-08-24 10:42:00,71.0,62.0,30.26,ESE,108,1.0,4.0,74,0.00,,,0.00,,2013-08-24 14:42:00,
2013-08-24 10:52:00,72.0,61.0,30.26,ENE,68,4.0,6.0,68,0.00,,,0.00,,2013-08-24 14:52:00,
2013-08-24 11:12:00,72.0,62.0,30.26,ESE,122,2.0,6.0,71,0.00,,,0.00,,2013-08-24 15:12:00,
2013-08-24 11:22:00,74.0,59.0,30.26,East,88,3.0,8.0,60,0.00,,,0.00,,2013-08-24 15:22:00,
2013-08-24 11:45:00,75.0,58.0,30.26,ESE,122,3.0,7.0,55,0.00,,,0.00,,2013-08-24 15:45:00,
2013-08-24 11:54:00,77.0,56.0,30.26,NE,54,7.0,10.0,49,0.00,,,0.00,,2013-08-24 15:54:00,
2013-08-24 12:14:00,77.0,56.0,30.26,East,93,7.0,11.0,49,0.00,,,0.00,,2013-08-24 16:14:00,
2013-08-24 12:23:00,77.0,57.0,30.25,SSE,155,6.0,14.0,50,0.00,,,0.00,,2013-08-24 16:23:00,
2013-08-24 12:42:00,78.0,56.0,30.25,East,101,7.0,11.0,46,0.00,,,0.00,,2013-08-24 16:42:00,
2013-08-24 12:53:00,78.0,56.0,30.24,ENE,68,6.0,13.0,47,0.00,,,0.00,,2013-08-24 16:53:00,
2013-08-24 13:12:00,79.0,58.0,30.24,ENE,75,7.0,12.0,49,0.00,,,0.00,,2013-08-24 17:12:00,
2013-08-24 13:23:00,79.0,56.0,30.24,SSE,165,5.0,9.0,46,0.00,,,0.00,,2013-08-24 17:23:00,
2013-08-24 13:42:00,79.0,56.0,30.23,ESE,106,6.0,14.0,46,0.00,,,0.00,,2013-08-24 17:42:00,
2013-08-24 13:52:00,81.0,58.0,30.22,ESE,122,6.0,10.0,45,0.00,,,0.00,,2013-08-24 17:52:00,
2013-08-24 14:13:00,81.0,58.0,30.22,ENE,71,5.0,11.0,45,0.00,,,0.00,,2013-08-24 18:13:00,
2013-08-24 14:22:00,81.0,56.0,30.22,SE,130,5.0,13.0,42,0.00,,,0.00,,2013-08-24 18:22:00,
2013-08-24 14:42:00,81.0,56.0,30.22,SSE,167,5.0,15.0,43,0.00,,,0.00,,2013-08-24 18:42:00,
2013-08-24 14:53:00,81.0,56.0,30.22,ESE,113,5.0,13.0,42,0.00,,,0.00,,2013-08-24 18:53:00,
2013-08-24 15:12:00,81.0,55.0,30.22,SSE,167,8.0,13.0,41,0.00,,,0.00,,2013-08-24 19:12:00,
2013-08-24 15:22:00,82.0,57.0,30.22,NE,56,6.0,11.0,42,0.00,,,0.00,,2013-08-24 19:22:00,
2013-08-24 15:52:00,82.0,57.0,30.21,ENE,72,3.0,8.0,42,0.00,,,0.00,,2013-08-24 19:52:00,
2013-08-24 16:12:00,82.0,58.0,30.21,SE,125,4.0,9.0,44,0.00,,,0.00,,2013-08-24 20:12:00,
2013-08-24 16:22:00,83.0,58.0,30.21,SSE,165,3.0,9.0,42,0.00,,,0.00,,2013-08-24 20:22:00,
2013-08-24 16:42:00,82.0,56.0,30.20,SSE,163,4.0,9.0,41,0.00,,,0.00,,2013-08-24 20:42:00,
2013-08-24 16:52:00,83.0,56.0,30.20,SSE,159,3.0,9.0,40,0.00,,,0.00,,2013-08-24 20:52:00,
2013-08-24 17:11:00,82.0,57.0,30.20,ENE,58,2.0,9.0,42,0.00,,,0.00,,2013-08-24 21:11:00,
2013-08-24 17:22:00,82.0,57.0,30.20,East,86,5.0,8.0,42,0.00,,,0.00,,2013-08-24 21:22:00,
2013-08-24 17:43:00,82.0,55.0,30.19,ESE,110,2.0,6.0,40,0.00,,,0.00,,2013-08-24 21:43:00,
2013-08-24 17:54:00,83.0,55.0,30.19,East,89,1.0,6.0,39,0.00,,,0.00,,2013-08-24 21:54:00,
2013-08-24 18:14:00,83.0,55.0,30.19,ESE,103,3.0,5.0,39,0.00,,,0.00,,2013-08-24 22:14:00,
2013-08-24 18:24:00,82.0,57.0,30.19,ESE,113,2.0,7.0,42,0.00,,,0.00,,2013-08-24 22:24:00,
2013-08-24 18:43:00,82.0,57.0,30.20,East,101,4.0,7.0,42,0.00,,,0.00,,2013-08-24 22:43:00,
2013-08-24 18:53:00,81.0,58.0,30.20,East,99,3.0,6.0,45,0.00,,,0.00,,2013-08-24 22:53:00,
2013-08-24 19:12:00,81.0,56.0,30.19,ESE,118,3.0,5.0,43,0.00,,,0.00,,2013-08-24 23:12:00,
2013-08-24 19:22:00,81.0,59.0,30.19,ESE,110,3.0,5.0,47,0.00,,,0.00,,2013-08-24 23:22:00,
2013-08-24 19:43:00,80.0,59.0,30.19,ESE,103,1.0,3.0,49,0.00,,,0.00,,2013-08-24 23:43:00,
2013-08-24 19:53:00,79.0,58.0,30.19,ESE,115,1.0,4.0,49,0.00,,,0.00,,2013-08-24 23:53:00,
2013-08-24 20:12:00,78.0,58.0,30.19,East,82,1.0,3.0,51,0.00,,,0.00,,2013-08-25 00:12:00,
2013-08-24 20:22:00,77.0,60.0,30.20,East,84,2.0,4.0,55,0.00,,,0.00,,2013-08-25 00:22:00,
2013-08-24 20:42:00,75.0,59.0,30.20,East,91,2.0,4.0,58,0.00,,,0.00,,2013-08-25 00:42:00,
2013-08-24 20:52:00,74.0,60.0,30.20,ENE,74,0.0,2.0,62,0.00,,,0.00,,2013-08-25 00:52:00,
2013-08-24 21:11:00,72.0,61.0,30.20,ENE,74,0.0,1.0,69,0.00,,,0.00,,2013-08-25 01:11:00,
2013-08-24 21:22:00,71.0,61.0,30.21,ENE,74,0.0,0.0,70,0.00,,,0.00,,2013-08-25 01:22:00,
2013-08-24 21:42:00,70.0,60.0,30.21,ENE,68,1.0,2.0,70,0.00,,,0.00,,2013-08-25 01:42:00,
2013-08-24 21:52:00,70.0,60.0,30.22,ENE,72,1.0,2.0,71,0.00,,,0.00,,2013-08-25 01:52:00,
2013-08-24 22:11:00,70.0,61.0,30.22,East,84,5.0,8.0,72,0.00,,,0.00,,2013-08-25 02:11:00,
2013-08-24 22:22:00,69.0,61.0,30.22,East,94,6.0,8.0,75,0.00,,,0.00,,2013-08-25 02:22:00,
2013-08-24 22:42:00,68.0,61.0,30.22,East,82,3.0,7.0,77,0.00,,,0.00,,2013-08-25 02:42:00,
2013-08-24 22:52:00,68.0,61.0,30.22,ENE,64,4.0,6.0,79,0.00,,,0.00,,2013-08-25 02:52:00,
2013-08-24 23:11:00,67.0,61.0,30.22,ENE,67,5.0,7.0,80,0.00,,,0.00,,2013-08-25 03:11:00,
2013-08-24 23:23:00,67.0,61.0,30.22,ENE,60,3.0,5.0,81,0.00,,,0.00,,2013-08-25 03:23:00,
2013-08-24 23:44:00,67.0,61.0,30.22,ENE,69,3.0,7.0,81,0.00,,,0.00,,2013-08-25 03:44:00,
2013-08-24 23:54:00,66.0,60.0,30.22,ENE,72,3.0,5.0,82,0.00,,,0.00,,2013-08-25 03:54:00,